createdAt,value
2022-12-17T00:01:06.858Z,99.00
2022-12-17T00:03:54.055Z,98.10
2022-12-17T00:06:43.358Z,96.90
2022-12-17T00:09:29.848Z,96.50
2022-12-17T00:12:16.472Z,96.90
2022-12-17T00:15:02.871Z,94.90
2022-12-17T00:17:49.356Z,92.60
2022-12-17T00:20:35.839Z,95.00
2022-12-17T00:23:23.775Z,95.30
2022-12-17T00:26:11.828Z,97.20
2022-12-17T00:28:58.957Z,97.40
2022-12-17T00:31:46.989Z,96.30
2022-12-17T00:34:33.610Z,97.30
2022-12-17T00:37:20.247Z,99.30
2022-12-17T00:40:06.664Z,101.20
2022-12-17T00:43:00.557Z,99.60
2022-12-17T00:45:47.442Z,95.40
2022-12-17T00:48:34.312Z,101.80
2022-12-17T00:51:21.135Z,99.50
2022-12-17T00:54:07.619Z,100.50
2022-12-17T00:56:54.134Z,99.30
2022-12-17T00:59:42.762Z,98.70
2022-12-17T01:02:29.246Z,95.60
2022-12-17T01:05:16.340Z,97.30
2022-12-17T01:08:02.923Z,104.00
2022-12-17T01:10:49.393Z,104.10
2022-12-17T01:13:37.153Z,103.40
2022-12-17T01:16:24.975Z,98.20
2022-12-17T01:19:12.388Z,100.50
2022-12-17T01:21:58.821Z,95.70
2022-12-17T01:24:45.427Z,106.80
2022-12-17T01:27:32.095Z,97.90
2022-12-17T01:30:18.465Z,98.60
2022-12-17T01:33:04.873Z,98.00
2022-12-17T01:35:52.428Z,98.40
2022-12-17T01:38:38.889Z,97.50
2022-12-17T01:41:25.438Z,96.80
2022-12-17T01:44:12.004Z,93.80
2022-12-17T01:47:00.946Z,91.00
2022-12-17T01:49:47.512Z,93.10
2022-12-17T01:52:35.187Z,98.60
2022-12-17T01:55:23.208Z,95.00
2022-12-17T01:58:09.751Z,95.20
2022-12-17T02:00:56.204Z,95.00
2022-12-17T02:03:42.520Z,96.10
2022-12-17T02:06:46.319Z,97.70
2022-12-17T02:10:05.443Z,99.40
2022-12-17T02:13:06.464Z,99.50
2022-12-17T02:16:01.158Z,94.30
2022-12-17T02:18:55.005Z,93.60
2022-12-17T02:21:44.832Z,98.90
2022-12-17T02:24:51.862Z,92.90
2022-12-17T02:27:40.917Z,94.40
2022-12-17T02:30:28.966Z,93.30
2022-12-17T02:33:15.297Z,93.50
2022-12-17T02:36:08.505Z,91.90
2022-12-17T02:38:56.701Z,92.70
2022-12-17T02:41:48.140Z,91.70
2022-12-17T02:44:37.406Z,94.30
2022-12-17T02:47:27.336Z,91.20
2022-12-17T02:50:13.893Z,93.70
2022-12-17T02:53:04.440Z,88.30
2022-12-17T02:55:51.623Z,96.90
2022-12-17T02:58:38.141Z,94.00
2022-12-17T03:01:25.296Z,96.40
2022-12-17T03:04:12.033Z,100.20
2022-12-17T03:06:58.536Z,96.40
2022-12-17T03:09:45.843Z,94.40
2022-12-17T03:12:33.070Z,92.10
2022-12-17T03:15:19.635Z,94.40
2022-12-17T03:18:06.444Z,89.30
2022-12-17T03:20:52.978Z,96.30
2022-12-17T03:23:39.684Z,96.00
2022-12-17T03:26:25.931Z,97.90
2022-12-17T03:29:12.500Z,98.80
2022-12-17T03:31:59.123Z,98.80
2022-12-17T03:34:45.298Z,98.20
2022-12-17T03:37:31.959Z,96.50
2022-12-17T03:40:18.584Z,98.10
2022-12-17T03:43:05.107Z,95.60
2022-12-17T03:45:51.757Z,95.80
2022-12-17T03:48:38.315Z,95.10
2022-12-17T03:51:26.540Z,95.60
2022-12-17T03:54:13.167Z,96.70
2022-12-17T03:56:59.726Z,95.10
2022-12-17T03:59:46.207Z,96.50
2022-12-17T04:02:32.980Z,92.40
2022-12-17T04:05:20.527Z,93.10
2022-12-17T04:08:07.248Z,98.90
2022-12-17T04:10:53.907Z,97.10
2022-12-17T04:13:41.454Z,95.60
2022-12-17T04:16:28.566Z,95.80
2022-12-17T04:19:15.020Z,91.40
2022-12-17T04:22:01.599Z,90.10
2022-12-17T04:24:47.933Z,91.40
2022-12-17T04:27:34.392Z,91.40
2022-12-17T04:30:21.050Z,86.00
2022-12-17T04:33:07.527Z,87.20
2022-12-17T04:35:54.054Z,94.50
2022-12-17T04:38:40.584Z,89.10
2022-12-17T04:41:27.147Z,87.30
2022-12-17T04:44:13.793Z,89.90
2022-12-17T04:46:59.984Z,86.10
2022-12-17T04:49:46.441Z,87.20
2022-12-17T04:52:32.999Z,90.00
2022-12-17T04:55:19.573Z,87.20
2022-12-17T04:58:06.161Z,84.30
2022-12-17T05:00:52.698Z,82.00
2022-12-17T05:03:39.914Z,83.80
2022-12-17T05:06:27.394Z,82.00
2022-12-17T05:09:13.923Z,88.70
2022-12-17T05:12:00.523Z,82.50
2022-12-17T05:14:47.027Z,80.80
2022-12-17T05:17:33.671Z,86.90
2022-12-17T05:20:20.089Z,82.10
2022-12-17T05:23:06.512Z,81.40
2022-12-17T05:25:53.156Z,83.30
2022-12-17T05:28:39.546Z,84.60
2022-12-17T05:31:26.036Z,83.30
2022-12-17T05:34:12.560Z,79.70
2022-12-17T05:36:58.897Z,82.70
2022-12-17T05:39:45.382Z,81.70
2022-12-17T05:42:31.940Z,80.30
2022-12-17T05:45:18.397Z,83.80
2022-12-17T05:48:04.885Z,80.10
2022-12-17T05:50:51.584Z,75.70
2022-12-17T05:53:38.461Z,82.70
2022-12-17T05:56:25.521Z,80.40
2022-12-17T05:59:12.128Z,79.90
2022-12-17T06:01:58.548Z,78.30
2022-12-17T06:04:44.963Z,78.20
2022-12-17T06:07:31.345Z,80.10
2022-12-17T06:10:17.864Z,82.70
2022-12-17T06:13:14.160Z,78.40
2022-12-17T06:16:00.726Z,78.90
2022-12-17T06:18:47.332Z,79.50
2022-12-17T06:21:33.915Z,80.40
2022-12-17T06:24:20.438Z,78.90
2022-12-17T06:27:07.071Z,76.80
2022-12-17T06:29:53.770Z,78.90
2022-12-17T06:32:40.275Z,76.30
2022-12-17T06:35:27.435Z,74.90
2022-12-17T06:38:18.619Z,79.70
2022-12-17T06:41:05.231Z,79.30
2022-12-17T06:43:51.721Z,77.20
2022-12-17T06:46:38.410Z,75.00
2022-12-17T06:49:24.896Z,73.20
2022-12-17T06:52:11.649Z,77.60
2022-12-17T06:54:58.441Z,75.70
2022-12-17T06:57:50.050Z,78.00
2022-12-17T07:00:37.112Z,78.80
2022-12-17T07:03:23.775Z,80.30
2022-12-17T07:06:10.133Z,77.00
2022-12-17T07:08:56.618Z,73.10
2022-12-17T07:11:43.690Z,76.70
2022-12-17T07:14:30.264Z,74.60
2022-12-17T07:17:16.762Z,77.60
2022-12-17T07:20:03.384Z,76.10
2022-12-17T07:22:54.200Z,74.90
2022-12-17T07:25:45.822Z,74.80
2022-12-17T07:28:33.207Z,73.50
2022-12-17T07:31:19.792Z,71.80
2022-12-17T07:34:06.351Z,74.10
2022-12-17T07:36:52.928Z,72.40
2022-12-17T07:39:39.437Z,73.60
2022-12-17T07:42:25.901Z,72.20
2022-12-17T07:45:12.492Z,76.50
2022-12-17T07:47:58.986Z,75.10
2022-12-17T07:50:45.430Z,76.90
2022-12-17T07:53:31.917Z,76.50
2022-12-17T07:56:18.399Z,87.30
2022-12-17T07:59:04.906Z,80.30
2022-12-17T08:01:51.615Z,80.60
2022-12-17T08:04:38.224Z,82.50
2022-12-17T08:07:24.684Z,79.80
2022-12-17T08:10:11.203Z,80.20
2022-12-17T08:12:57.719Z,84.80
2022-12-17T08:15:44.210Z,83.90
2022-12-17T08:18:30.880Z,86.40
2022-12-17T08:21:17.422Z,86.60
2022-12-17T08:24:03.989Z,84.90
2022-12-17T08:26:50.652Z,84.80
2022-12-17T08:29:37.100Z,82.60
2022-12-17T08:32:23.636Z,86.30
2022-12-17T08:35:10.252Z,83.30
2022-12-17T08:37:56.792Z,86.30
2022-12-17T08:40:43.488Z,83.50
2022-12-17T08:43:30.092Z,89.00
2022-12-17T08:46:16.531Z,81.00
2022-12-17T08:49:02.997Z,83.20
2022-12-17T08:51:49.701Z,75.00
2022-12-17T08:54:36.194Z,78.80
2022-12-17T08:57:31.096Z,78.70
2022-12-17T09:00:18.643Z,76.80
2022-12-17T09:03:18.737Z,81.30
2022-12-17T09:06:05.100Z,82.10
2022-12-17T09:08:51.615Z,78.60
2022-12-17T09:11:38.288Z,80.90
2022-12-17T09:14:24.863Z,84.30
2022-12-17T09:17:11.519Z,82.30
2022-12-17T09:19:58.010Z,79.20
2022-12-17T09:22:44.496Z,82.00
2022-12-17T09:25:31.042Z,82.30
2022-12-17T09:28:21.809Z,81.80
2022-12-17T09:31:08.544Z,79.70
2022-12-17T09:33:55.184Z,79.00
2022-12-17T09:36:44.280Z,82.20
2022-12-17T09:39:34.564Z,87.80
2022-12-17T09:42:30.573Z,84.30
2022-12-17T09:45:26.235Z,108.00
2022-12-17T09:48:30.884Z,93.30
2022-12-17T09:51:18.925Z,81.20
2022-12-17T09:54:08.531Z,75.50
2022-12-17T09:56:57.296Z,78.60
2022-12-17T09:59:47.559Z,73.40
2022-12-17T10:02:40.877Z,72.30
2022-12-17T10:05:33.103Z,75.00
2022-12-17T10:08:19.598Z,76.50
2022-12-17T10:11:06.064Z,80.70
2022-12-17T10:13:52.719Z,79.20
2022-12-17T10:16:39.264Z,77.10
2022-12-17T10:19:32.175Z,81.80
2022-12-17T10:22:33.319Z,80.10
2022-12-17T10:25:37.268Z,77.60
2022-12-17T10:28:25.277Z,79.00
2022-12-17T10:31:11.857Z,74.10
2022-12-17T10:33:59.620Z,75.20
2022-12-17T10:36:47.390Z,73.90
2022-12-17T10:39:42.767Z,75.40
2022-12-17T10:42:56.021Z,82.70
2022-12-17T10:45:48.141Z,74.80
2022-12-17T10:48:43.962Z,70.70
2022-12-17T10:51:38.297Z,76.80
2022-12-17T10:54:49.974Z,74.90
2022-12-17T10:57:42.942Z,74.50
2022-12-17T11:01:05.964Z,82.00
2022-12-17T11:03:58.109Z,77.80
2022-12-17T11:06:50.444Z,85.30
2022-12-17T11:09:50.675Z,81.00
2022-12-17T11:12:39.194Z,77.50
2022-12-17T11:15:49.304Z,78.60
2022-12-17T11:18:39.611Z,79.30
2022-12-17T11:21:38.872Z,80.20
2022-12-17T11:24:31.057Z,81.50
2022-12-17T11:27:18.192Z,75.70
2022-12-17T11:30:04.888Z,78.00
2022-12-17T11:33:10.432Z,73.70
2022-12-17T11:36:07.106Z,72.60
2022-12-17T11:39:17.211Z,78.30
2022-12-17T11:42:22.511Z,79.40
2022-12-17T11:45:23.924Z,79.10
2022-12-17T11:48:25.392Z,81.00
2022-12-17T11:51:45.149Z,75.00
2022-12-17T11:54:41.324Z,80.10
2022-12-17T11:57:40.581Z,89.20
2022-12-17T12:00:36.462Z,83.60
2022-12-17T12:04:05.852Z,82.40
2022-12-17T12:07:08.229Z,80.90
2022-12-17T12:10:12.262Z,81.50
2022-12-17T12:13:26.698Z,78.60
2022-12-17T12:16:45.144Z,82.10
2022-12-17T12:19:41.341Z,82.60
2022-12-17T12:22:54.201Z,86.30
2022-12-17T12:25:47.351Z,88.40
2022-12-17T12:28:45.356Z,99.30
2022-12-17T12:31:52.846Z,88.70
2022-12-17T12:34:46.557Z,86.30
2022-12-17T12:37:35.861Z,87.10
2022-12-17T12:40:38.418Z,95.80
2022-12-17T12:43:32.517Z,95.70
2022-12-17T12:46:32.351Z,97.30
2022-12-17T12:49:44.915Z,91.50
2022-12-17T12:52:37.621Z,92.80
2022-12-17T12:55:24.209Z,87.20
2022-12-17T12:58:21.004Z,83.60
2022-12-17T13:01:07.806Z,79.20
2022-12-17T13:04:03.799Z,86.10
2022-12-17T13:06:43.689Z,86.30
2022-12-17T13:09:18.046Z,86.30
2022-12-17T13:11:48.374Z,87.40
2022-12-17T13:14:20.737Z,81.20
2022-12-17T13:16:48.541Z,78.70
2022-12-17T13:19:32.376Z,82.50
2022-12-17T13:22:28.669Z,80.70
2022-12-17T13:25:17.495Z,100.20
2022-12-17T13:27:45.789Z,86.20
2022-12-17T13:30:29.454Z,121.70
2022-12-17T13:33:05.466Z,139.80
2022-12-17T13:35:39.156Z,166.70
2022-12-17T13:38:38.736Z,100.40
2022-12-17T13:41:13.115Z,89.80
2022-12-17T13:43:47.278Z,88.70
2022-12-17T13:46:47.081Z,79.30
2022-12-17T13:49:29.054Z,84.80
2022-12-17T13:52:11.461Z,86.30
2022-12-17T13:54:39.933Z,80.60
2022-12-17T13:57:15.618Z,85.40
2022-12-17T13:59:54.685Z,84.50
2022-12-17T14:02:35.156Z,74.30
2022-12-17T14:05:08.091Z,71.80
2022-12-17T14:07:38.841Z,68.60
2022-12-17T14:10:15.486Z,66.90
2022-12-17T14:12:43.939Z,67.30
2022-12-17T14:15:21.067Z,61.90
2022-12-17T14:17:49.566Z,70.00
2022-12-17T14:20:21.212Z,73.80
2022-12-17T14:22:54.471Z,70.20
2022-12-17T14:25:39.669Z,99.30
2022-12-17T14:28:32.514Z,88.40
2022-12-17T14:34:08.262Z,74.60
2022-12-17T14:36:39.011Z,75.20
2022-12-17T14:39:17.832Z,75.20
2022-12-17T14:42:04.436Z,69.30
2022-12-17T14:44:32.500Z,69.50
2022-12-17T14:47:12.772Z,69.20
2022-12-17T14:49:56.478Z,65.70
2022-12-17T14:52:42.958Z,64.50
2022-12-17T14:55:23.107Z,61.40
2022-12-17T14:57:52.379Z,68.00
2022-12-17T15:00:21.278Z,64.30
2022-12-17T15:02:52.968Z,64.20
2022-12-17T15:05:21.330Z,68.20
2022-12-17T15:07:49.204Z,65.40
2022-12-17T15:10:20.739Z,68.90
2022-12-17T15:12:51.493Z,66.50
2022-12-17T15:15:21.595Z,66.40
2022-12-17T15:17:49.591Z,69.10
2022-12-17T15:20:20.299Z,71.50
2022-12-17T15:22:48.516Z,67.00
2022-12-17T15:25:18.451Z,71.00
2022-12-17T15:27:46.785Z,90.30
2022-12-17T15:30:17.899Z,74.90
2022-12-17T15:32:46.233Z,80.10
2022-12-17T15:35:14.988Z,69.80
2022-12-17T15:37:42.767Z,65.40
2022-12-17T15:40:12.164Z,65.50
2022-12-17T15:43:04.455Z,65.40
2022-12-17T15:45:34.106Z,59.80
2022-12-17T15:48:02.111Z,63.20
2022-12-17T15:50:30.176Z,60.60
2022-12-17T15:52:58.213Z,64.10
2022-12-17T15:55:26.097Z,61.50
2022-12-17T15:57:54.156Z,59.30
2022-12-17T16:00:22.293Z,60.20
2022-12-17T16:02:50.968Z,61.30
2022-12-17T16:05:19.588Z,60.20
2022-12-17T16:07:49.982Z,63.30
2022-12-17T16:10:18.029Z,59.40
2022-12-17T16:12:45.824Z,53.80
2022-12-17T16:15:13.757Z,59.00
2022-12-17T16:17:41.987Z,54.20
2022-12-17T16:20:10.574Z,60.00
2022-12-17T16:22:38.423Z,63.60
2022-12-17T16:25:07.009Z,66.50
2022-12-17T16:27:34.718Z,59.00
2022-12-17T16:30:03.698Z,63.80
2022-12-17T16:32:36.080Z,69.50
2022-12-17T16:35:05.246Z,82.60
2022-12-17T16:37:32.973Z,105.30
2022-12-17T16:40:00.942Z,76.00
2022-12-17T16:42:29.064Z,66.60
2022-12-17T16:44:56.736Z,58.50
2022-12-17T16:47:24.955Z,65.70
2022-12-17T16:49:52.706Z,65.70
2022-12-17T16:52:20.633Z,62.20
2022-12-17T16:54:48.537Z,67.20
2022-12-17T16:57:16.164Z,63.50
2022-12-17T16:59:43.859Z,63.60
2022-12-17T17:02:15.601Z,57.50
2022-12-17T17:04:43.577Z,93.10
2022-12-17T17:07:11.477Z,108.80
2022-12-17T17:09:39.455Z,74.40
2022-12-17T17:12:09.038Z,58.60
2022-12-17T17:14:37.237Z,89.10
2022-12-17T17:17:05.085Z,101.90
2022-12-17T17:19:32.841Z,71.50
2022-12-17T17:22:00.499Z,83.40
2022-12-17T17:24:28.226Z,69.70
2022-12-17T17:26:55.974Z,57.80
2022-12-17T17:29:23.888Z,64.50
2022-12-17T17:34:40.008Z,61.30
2022-12-17T17:37:07.938Z,60.90
2022-12-17T17:39:35.799Z,71.40
2022-12-17T17:42:03.655Z,84.80
2022-12-17T17:44:31.827Z,79.30
2022-12-17T17:46:59.987Z,77.80
2022-12-17T17:49:27.930Z,80.70
2022-12-17T17:52:12.077Z,67.40
2022-12-17T17:54:40.167Z,82.60
2022-12-17T17:57:09.131Z,71.90
2022-12-17T17:59:37.726Z,82.60
2022-12-17T18:02:05.724Z,78.40
2022-12-17T18:04:33.529Z,79.70
2022-12-17T18:07:25.187Z,119.70
2022-12-17T18:09:49.159Z,117.10
2022-12-17T18:12:36.116Z,170.80
2022-12-17T18:15:14.214Z,139.40
2022-12-17T18:17:44.869Z,89.30
2022-12-17T18:20:13.352Z,124.10
2022-12-17T18:22:41.167Z,117.30
2022-12-17T18:25:08.849Z,83.30
2022-12-17T18:27:36.752Z,56.50
2022-12-17T18:30:05.133Z,57.10
2022-12-17T18:32:33.012Z,81.20
2022-12-17T18:35:00.936Z,79.70
2022-12-17T18:37:28.709Z,70.80
2022-12-17T18:39:56.647Z,60.70
2022-12-17T18:42:43.252Z,72.10
2022-12-17T18:45:10.981Z,55.40
2022-12-17T18:47:38.727Z,45.60
2022-12-17T18:50:06.884Z,48.10
2022-12-17T18:52:34.766Z,48.60
2022-12-17T18:55:02.582Z,53.90
2022-12-17T18:57:30.356Z,50.30
2022-12-17T18:59:58.171Z,58.00
2022-12-17T19:02:26.036Z,51.60
2022-12-17T19:04:54.058Z,47.00
2022-12-17T19:07:22.000Z,65.50
2022-12-17T19:09:50.048Z,58.20
2022-12-17T19:12:17.768Z,66.30
2022-12-17T19:14:45.521Z,51.40
2022-12-17T19:17:13.233Z,72.60
2022-12-17T19:19:40.960Z,59.90
2022-12-17T19:22:08.635Z,66.60
2022-12-17T19:24:36.367Z,67.90
2022-12-17T19:27:04.400Z,77.60
2022-12-17T19:29:32.297Z,85.60
2022-12-17T19:32:00.569Z,81.20
2022-12-17T19:34:28.480Z,73.20
2022-12-17T19:36:56.334Z,81.20
2022-12-17T19:39:24.144Z,61.70
2022-12-17T19:41:51.981Z,73.20
2022-12-17T19:44:20.988Z,60.90
2022-12-17T19:46:48.733Z,68.60
2022-12-17T19:49:17.149Z,61.90
2022-12-17T19:51:45.344Z,51.10
2022-12-17T19:54:15.277Z,56.10
2022-12-17T19:56:44.440Z,84.20
2022-12-17T19:59:12.907Z,48.00
2022-12-17T20:01:43.996Z,57.10
2022-12-17T20:04:14.048Z,59.10
2022-12-17T20:06:42.896Z,51.30
2022-12-17T20:09:10.707Z,68.20
2022-12-17T20:11:38.707Z,132.30
2022-12-17T20:14:12.279Z,56.30
2022-12-17T20:16:43.082Z,54.70
2022-12-17T20:19:14.042Z,66.60
2022-12-17T20:21:42.404Z,50.10
2022-12-17T20:24:10.971Z,48.00
2022-12-17T20:26:39.263Z,47.90
2022-12-17T20:29:08.061Z,51.80
2022-12-17T20:31:36.981Z,47.30
2022-12-17T20:34:07.260Z,42.90
2022-12-17T20:36:36.030Z,43.60
2022-12-17T20:39:04.555Z,52.80
2022-12-17T20:41:33.074Z,46.40
2022-12-17T20:44:04.188Z,61.00
2022-12-17T20:46:32.211Z,44.80
2022-12-17T20:49:01.291Z,71.10
2022-12-17T20:51:30.135Z,56.00
2022-12-17T20:54:00.115Z,36.50
2022-12-17T20:56:30.343Z,40.90
2022-12-17T20:59:02.262Z,55.50
2022-12-17T21:01:31.997Z,42.20
2022-12-17T21:04:01.596Z,59.50
2022-12-17T21:06:45.483Z,42.20
2022-12-17T21:09:16.272Z,32.00
2022-12-17T21:11:44.113Z,40.00
2022-12-17T21:14:14.569Z,35.70
2022-12-17T21:16:43.120Z,31.30
2022-12-17T21:19:17.454Z,36.10
2022-12-17T21:21:45.481Z,43.00
2022-12-17T21:24:13.220Z,50.50
2022-12-17T21:26:43.037Z,40.70
2022-12-17T21:29:11.898Z,45.60
2022-12-17T21:31:48.466Z,42.60
2022-12-17T21:34:22.896Z,46.80
2022-12-17T21:36:51.757Z,46.90
2022-12-17T21:39:20.375Z,49.50
2022-12-17T21:42:08.543Z,51.80
2022-12-17T21:44:37.011Z,52.20
2022-12-17T21:47:04.827Z,53.50
2022-12-17T21:49:32.597Z,51.20
2022-12-17T21:52:01.744Z,51.10
2022-12-17T21:54:29.507Z,49.60
2022-12-17T21:56:57.186Z,45.80
2022-12-17T21:59:24.910Z,45.10
2022-12-17T22:01:52.785Z,49.70
2022-12-17T22:04:21.016Z,51.60
2022-12-17T22:06:53.769Z,48.10
2022-12-17T22:09:59.732Z,59.00
2022-12-17T22:12:40.515Z,58.90
2022-12-17T22:15:11.227Z,56.50
2022-12-17T22:17:41.171Z,55.30
2022-12-17T22:20:10.028Z,51.10
2022-12-17T22:22:37.795Z,52.00
2022-12-17T22:25:10.252Z,54.20
2022-12-17T22:27:41.038Z,52.20
2022-12-17T22:30:32.635Z,58.00
2022-12-17T22:33:05.680Z,57.40
2022-12-17T22:37:41.691Z,60.30
2022-12-17T22:43:58.550Z,57.10
2022-12-17T22:44:44.343Z,56.90
2022-12-17T22:44:49.498Z,57.40
2022-12-17T22:47:15.773Z,54.40
2022-12-17T22:49:44.569Z,58.70
2022-12-17T22:52:12.487Z,52.10
2022-12-17T22:54:40.503Z,58.10
2022-12-17T22:57:33.565Z,57.20
2022-12-17T22:59:56.054Z,58.30
2022-12-17T23:02:24.070Z,50.60
2022-12-17T23:04:51.937Z,51.80
2022-12-17T23:07:19.548Z,54.90
2022-12-17T23:09:47.192Z,52.40
2022-12-17T23:12:33.680Z,52.90
2022-12-17T23:15:01.303Z,53.30
2022-12-17T23:17:28.943Z,55.10
2022-12-17T23:19:56.576Z,58.20
2022-12-17T23:22:24.903Z,59.70
2022-12-17T23:24:52.877Z,59.90
2022-12-17T23:27:20.580Z,59.80
2022-12-17T23:29:48.287Z,62.00
2022-12-17T23:32:16.039Z,62.80
2022-12-17T23:34:43.693Z,62.10
2022-12-17T23:37:11.341Z,62.30
2022-12-17T23:39:39.098Z,65.30
2022-12-17T23:42:07.020Z,65.70
2022-12-17T23:44:34.633Z,68.50
2022-12-17T23:47:02.282Z,68.70
2022-12-17T23:49:29.896Z,64.90
2022-12-17T23:51:57.531Z,69.90
2022-12-17T23:54:25.661Z,65.60
2022-12-17T23:56:53.293Z,68.00
2022-12-17T23:59:20.907Z,68.00
